createdAt,value
2018-10-18T00:00:03.455Z,69.63
2018-10-18T00:02:35.767Z,69.02
2018-10-18T00:05:08.980Z,69.72
2018-10-18T00:07:41.154Z,69.84
2018-10-18T00:10:13.768Z,70.40
2018-10-18T00:12:46.391Z,70.38
2018-10-18T00:15:18.537Z,70.90
2018-10-18T00:17:50.730Z,71.65
2018-10-18T00:20:22.857Z,72.07
2018-10-18T00:22:55.139Z,71.56
2018-10-18T00:25:27.278Z,72.86
2018-10-18T00:27:59.842Z,72.51
2018-10-18T00:30:31.783Z,71.83
2018-10-18T00:33:05.000Z,72.24
2018-10-18T00:35:37.042Z,71.53
2018-10-18T00:38:09.228Z,71.44
2018-10-18T00:40:41.832Z,72.43
2018-10-18T00:43:14.121Z,71.94
2018-10-18T00:45:46.185Z,73.74
2018-10-18T00:48:18.345Z,73.57
2018-10-18T00:50:50.745Z,73.44
2018-10-18T00:53:23.876Z,73.79
2018-10-18T00:55:55.864Z,73.94
2018-10-18T00:58:28.483Z,74.43
2018-10-18T01:01:00.727Z,74.43
2018-10-18T01:03:32.899Z,75.47
2018-10-18T01:06:04.927Z,74.66
2018-10-18T01:08:37.331Z,74.84
2018-10-18T01:11:09.738Z,75.02
2018-10-18T01:13:41.738Z,74.78
2018-10-18T01:16:14.033Z,74.87
2018-10-18T01:18:46.402Z,73.05
2018-10-18T01:21:18.540Z,73.88
2018-10-18T01:23:50.936Z,73.27
2018-10-18T01:26:23.091Z,72.46
2018-10-18T01:28:55.761Z,72.68
2018-10-18T01:31:29.065Z,72.53
2018-10-18T01:34:01.404Z,71.58
2018-10-18T01:36:34.079Z,70.63
2018-10-18T01:39:07.642Z,70.16
2018-10-18T01:41:40.563Z,69.72
2018-10-18T01:44:13.279Z,70.05
2018-10-18T01:46:46.156Z,69.56
2018-10-18T01:49:18.252Z,69.67
2018-10-18T01:51:50.598Z,70.00
2018-10-18T01:54:22.985Z,68.94
2018-10-18T01:56:55.104Z,69.52
2018-10-18T01:59:27.551Z,69.63
2018-10-18T02:01:59.957Z,69.83
2018-10-18T02:04:32.614Z,69.45
2018-10-18T02:07:05.095Z,68.10
2018-10-18T02:09:37.272Z,67.91
2018-10-18T02:12:10.703Z,67.47
2018-10-18T02:14:43.492Z,67.90
2018-10-18T02:17:15.616Z,67.35
2018-10-18T02:19:47.927Z,66.60
2018-10-18T02:22:20.365Z,66.56
2018-10-18T02:24:52.573Z,64.58
2018-10-18T02:27:24.482Z,62.73
2018-10-18T02:29:57.100Z,62.89
2018-10-18T02:32:29.641Z,61.45
2018-10-18T02:35:02.403Z,61.17
2018-10-18T02:37:34.604Z,60.16
2018-10-18T02:40:07.050Z,59.58
2018-10-18T02:42:39.715Z,60.45
2018-10-18T02:45:12.034Z,60.87
2018-10-18T02:47:44.034Z,59.31
2018-10-18T02:50:15.825Z,58.65
2018-10-18T02:52:48.187Z,58.20
2018-10-18T02:55:20.504Z,58.57
2018-10-18T02:57:52.628Z,59.57
2018-10-18T03:00:24.941Z,59.51
2018-10-18T03:02:57.133Z,57.54
2018-10-18T03:05:29.217Z,56.66
2018-10-18T03:08:00.950Z,55.39
2018-10-18T03:10:33.729Z,55.57
2018-10-18T03:13:07.071Z,56.06
2018-10-18T03:15:39.292Z,56.46
2018-10-18T03:18:11.221Z,56.18
2018-10-18T03:20:43.408Z,54.18
2018-10-18T03:23:15.530Z,53.32
2018-10-18T03:25:47.634Z,53.13
2018-10-18T03:28:19.547Z,55.20
2018-10-18T03:30:51.744Z,52.75
2018-10-18T03:33:23.838Z,53.35
2018-10-18T03:35:57.372Z,54.39
2018-10-18T03:38:30.596Z,53.88
2018-10-18T03:41:02.713Z,52.44
2018-10-18T03:43:35.212Z,50.36
2018-10-18T03:46:07.216Z,50.16
2018-10-18T03:48:38.949Z,50.03
2018-10-18T03:51:11.073Z,48.94
2018-10-18T03:53:42.787Z,49.29
2018-10-18T03:56:14.886Z,48.17
2018-10-18T03:58:46.967Z,47.97
2018-10-18T04:01:18.796Z,48.17
2018-10-18T04:03:50.537Z,48.55
2018-10-18T04:06:22.593Z,47.76
2018-10-18T04:08:54.435Z,46.94
2018-10-18T04:11:26.480Z,46.46
2018-10-18T04:13:58.898Z,47.33
2018-10-18T04:16:31.345Z,45.51
2018-10-18T04:19:03.316Z,42.16
2018-10-18T04:21:35.411Z,43.65
2018-10-18T04:24:07.461Z,43.27
2018-10-18T04:26:39.521Z,43.95
2018-10-18T04:29:11.286Z,41.38
2018-10-18T04:31:43.365Z,40.07
2018-10-18T04:34:15.364Z,39.50
2018-10-18T04:36:47.871Z,38.82
2018-10-18T04:39:19.949Z,38.60
2018-10-18T04:41:52.300Z,37.39
2018-10-18T04:44:24.988Z,38.44
2018-10-18T04:46:58.106Z,37.24
2018-10-18T04:49:30.084Z,36.02
2018-10-18T04:52:02.189Z,36.44
2018-10-18T04:55:58.389Z,36.82
2018-10-18T04:58:30.766Z,36.12
2018-10-18T05:01:02.753Z,36.78
2018-10-18T05:03:35.588Z,36.72
2018-10-18T05:06:07.662Z,36.25
2018-10-18T05:08:39.816Z,36.41
2018-10-18T05:11:11.799Z,36.30
2018-10-18T05:13:43.874Z,36.56
2018-10-18T05:16:16.581Z,35.67
2018-10-18T05:18:48.724Z,37.42
2018-10-18T05:21:20.389Z,35.59
2018-10-18T05:23:52.634Z,35.09
2018-10-18T05:26:24.389Z,35.39
2018-10-18T05:28:56.615Z,34.33
2018-10-18T05:31:28.631Z,33.60
2018-10-18T05:34:00.836Z,33.18
2018-10-18T05:36:32.801Z,35.27
2018-10-18T05:39:05.331Z,34.74
2018-10-18T05:41:37.377Z,35.47
2018-10-18T05:44:09.321Z,33.48
2018-10-18T05:46:42.461Z,33.62
2018-10-18T05:49:14.687Z,33.97
2018-10-18T05:51:46.961Z,33.39
2018-10-18T05:54:18.804Z,32.92
2018-10-18T05:56:50.960Z,31.90
2018-10-18T05:59:22.885Z,30.96
2018-10-18T06:01:54.991Z,31.26
2018-10-18T06:04:27.691Z,31.92
2018-10-18T06:07:00.046Z,32.48
2018-10-18T06:09:33.686Z,30.61
2018-10-18T06:12:05.828Z,29.83
2018-10-18T06:14:38.109Z,30.99
2018-10-18T06:17:10.523Z,29.24
2018-10-18T06:19:42.977Z,28.19
2018-10-18T06:22:15.162Z,28.87
2018-10-18T06:24:47.143Z,29.22
2018-10-18T06:27:19.140Z,29.51
2018-10-18T06:29:51.306Z,28.63
2018-10-18T06:32:23.555Z,28.67
2018-10-18T06:34:56.419Z,28.32
2018-10-18T06:37:28.800Z,28.43
2018-10-18T06:40:01.116Z,28.54
2018-10-18T06:42:33.328Z,27.45
2018-10-18T06:45:06.098Z,25.98
2018-10-18T06:47:41.185Z,25.24
2018-10-18T06:50:18.797Z,23.89
2018-10-18T06:52:51.128Z,24.49
2018-10-18T06:55:24.063Z,22.71
2018-10-18T06:57:56.853Z,22.38
2018-10-18T07:00:29.500Z,21.85
2018-10-18T07:03:03.411Z,22.00
2018-10-18T07:05:35.697Z,21.02
2018-10-18T07:08:08.616Z,21.96
2018-10-18T07:10:40.693Z,22.45
2018-10-18T07:13:13.491Z,22.11
2018-10-18T07:15:45.662Z,21.53
2018-10-18T07:18:18.306Z,19.91
2018-10-18T07:20:50.855Z,21.95
2018-10-18T07:23:23.037Z,20.45
2018-10-18T07:25:55.210Z,20.16
2018-10-18T07:28:27.486Z,20.82
2018-10-18T07:30:59.821Z,19.94
2018-10-18T07:33:32.238Z,19.35
2018-10-18T07:36:04.426Z,19.02
2018-10-18T07:38:38.331Z,19.09
2018-10-18T07:43:42.100Z,19.30
2018-10-18T07:46:14.321Z,19.04
2018-10-18T07:51:19.436Z,18.75
2018-10-18T07:53:51.955Z,19.73
2018-10-18T07:56:24.184Z,18.39
2018-10-18T07:58:56.922Z,18.99
2018-10-18T08:01:29.571Z,17.64
2018-10-18T08:04:01.700Z,19.02
2018-10-18T08:06:33.728Z,18.29
2018-10-18T08:09:08.511Z,18.38
2018-10-18T08:11:40.962Z,17.10
2018-10-18T08:14:13.095Z,18.56
2018-10-18T08:16:45.347Z,17.80
2018-10-18T08:19:17.707Z,17.75
2018-10-18T08:21:50.104Z,22.12
2018-10-18T08:24:22.387Z,20.50
2018-10-18T08:26:54.445Z,20.62
2018-10-18T08:29:26.906Z,19.88
2018-10-18T08:31:59.037Z,20.83
2018-10-18T08:34:31.560Z,21.42
2018-10-18T08:37:03.714Z,21.85
2018-10-18T08:39:35.943Z,22.30
2018-10-18T08:42:08.219Z,22.47
2018-10-18T08:44:40.352Z,21.55
2018-10-18T08:47:12.515Z,21.81
2018-10-18T08:49:45.495Z,22.25
2018-10-18T08:52:17.793Z,23.20
2018-10-18T08:54:49.813Z,22.11
2018-10-18T08:57:21.849Z,21.92
2018-10-18T08:59:54.112Z,22.38
2018-10-18T09:02:27.164Z,23.25
2018-10-18T09:04:59.188Z,26.78
2018-10-18T09:07:31.435Z,26.03
2018-10-18T09:10:03.866Z,33.93
2018-10-18T09:12:36.182Z,48.72
2018-10-18T09:15:09.382Z,46.92
2018-10-18T09:17:41.746Z,40.80
2018-10-18T09:20:14.340Z,48.33
2018-10-18T09:22:46.349Z,46.33
2018-10-18T09:25:18.884Z,53.51
2018-10-18T09:27:51.173Z,57.50
2018-10-18T09:30:23.683Z,55.24
2018-10-18T09:32:56.205Z,58.84
2018-10-18T09:35:28.416Z,54.39
2018-10-18T09:38:00.948Z,53.69
2018-10-18T09:40:33.113Z,60.55
2018-10-18T09:43:05.424Z,61.68
2018-10-18T09:45:37.816Z,61.82
2018-10-18T09:48:10.129Z,57.84
2018-10-18T09:50:42.815Z,55.59
2018-10-18T09:53:15.988Z,51.82
2018-10-18T09:55:48.556Z,45.78
2018-10-18T09:58:20.996Z,52.61
2018-10-18T10:00:58.780Z,50.79
2018-10-18T10:03:30.936Z,50.16
2018-10-18T10:06:02.821Z,47.61
2018-10-18T10:08:35.115Z,45.40
2018-10-18T10:11:07.264Z,42.51
2018-10-18T10:13:39.565Z,44.53
2018-10-18T10:16:12.032Z,47.55
2018-10-18T10:18:44.347Z,48.45
2018-10-18T10:21:16.875Z,42.47
2018-10-18T10:23:49.178Z,45.19
2018-10-18T10:26:21.456Z,45.71
2018-10-18T10:28:53.763Z,41.88
2018-10-18T10:31:26.027Z,38.82
2018-10-18T10:33:58.286Z,37.71
2018-10-18T10:36:30.754Z,33.57
2018-10-18T10:39:03.320Z,32.67
2018-10-18T10:41:35.639Z,35.23
2018-10-18T10:44:09.146Z,35.30
2018-10-18T10:46:42.278Z,36.18
2018-10-18T10:49:16.030Z,33.27
2018-10-18T10:51:48.649Z,33.24
2018-10-18T10:54:20.392Z,33.58
2018-10-18T10:56:52.341Z,32.87
2018-10-18T10:59:24.455Z,35.21
2018-10-18T11:04:46.428Z,34.88
2018-10-18T11:07:18.466Z,32.97
2018-10-18T11:09:50.943Z,34.13
2018-10-18T11:12:23.229Z,35.79
2018-10-18T11:14:55.742Z,37.40
2018-10-18T11:17:28.011Z,38.39
2018-10-18T11:20:01.816Z,40.62
2018-10-18T11:22:34.573Z,40.25
2018-10-18T11:25:07.211Z,39.16
2018-10-18T11:27:39.453Z,37.27
2018-10-18T11:30:11.424Z,38.90
2018-10-18T11:32:43.723Z,38.40
2018-10-18T11:35:15.670Z,38.60
2018-10-18T11:37:47.541Z,39.97
2018-10-18T11:40:20.628Z,40.19
2018-10-18T11:42:53.806Z,37.18
2018-10-18T11:45:26.122Z,39.46
2018-10-18T11:47:58.373Z,39.54
2018-10-18T11:50:30.601Z,39.11
2018-10-18T11:53:08.511Z,41.39
2018-10-18T11:55:40.943Z,43.48
2018-10-18T11:58:13.737Z,42.81
2018-10-18T12:00:45.682Z,43.52
2018-10-18T12:03:17.984Z,40.29
2018-10-18T12:05:50.968Z,41.34
2018-10-18T12:08:23.217Z,42.01
2018-10-18T12:10:55.554Z,40.94
2018-10-18T12:13:27.804Z,41.89
2018-10-18T12:15:59.776Z,42.87
2018-10-18T12:18:32.511Z,41.95
2018-10-18T12:21:04.805Z,44.09
2018-10-18T12:23:37.728Z,42.04
2018-10-18T12:26:09.944Z,41.45
2018-10-18T12:28:42.106Z,41.52
2018-10-18T12:31:14.370Z,43.34
2018-10-18T12:33:46.553Z,43.12
2018-10-18T12:36:18.732Z,43.07
2018-10-18T12:38:50.944Z,42.09
2018-10-18T12:41:23.518Z,44.47
2018-10-18T12:43:55.648Z,42.92
2018-10-18T12:46:28.014Z,43.64
2018-10-18T12:49:00.039Z,43.92
2018-10-18T12:51:32.252Z,43.96
2018-10-18T12:54:04.879Z,43.42
2018-10-18T12:56:37.121Z,45.25
2018-10-18T12:59:08.973Z,47.33
2018-10-18T13:01:41.116Z,44.63
2018-10-18T13:04:13.350Z,44.34
2018-10-18T13:06:45.637Z,43.14
2018-10-18T13:09:17.963Z,44.60
2018-10-18T13:11:49.947Z,44.56
2018-10-18T13:14:22.188Z,44.67
2018-10-18T13:16:54.469Z,45.98
2018-10-18T13:19:26.974Z,45.53
2018-10-18T13:21:59.351Z,44.66
2018-10-18T13:24:32.312Z,43.45
2018-10-18T13:27:04.793Z,43.93
2018-10-18T13:29:37.113Z,44.63
2018-10-18T13:32:09.482Z,43.92
2018-10-18T13:34:42.813Z,45.90
2018-10-18T13:37:15.182Z,47.16
2018-10-18T13:39:47.483Z,47.77
2018-10-18T13:42:19.979Z,47.58
2018-10-18T13:44:52.151Z,49.66
2018-10-18T13:47:24.358Z,46.48
2018-10-18T13:49:56.350Z,45.38
2018-10-18T13:52:28.462Z,46.48
2018-10-18T13:55:00.935Z,48.30
2018-10-18T13:57:33.324Z,49.00
2018-10-18T14:00:19.838Z,49.58
2018-10-18T14:02:53.296Z,49.49
2018-10-18T14:05:25.886Z,49.97
2018-10-18T14:07:59.192Z,50.49
2018-10-18T14:10:31.515Z,50.27
2018-10-18T14:13:03.991Z,50.40
2018-10-18T14:15:35.980Z,47.89
2018-10-18T14:18:07.974Z,47.80
2018-10-18T14:20:40.449Z,46.03
2018-10-18T14:24:15.787Z,47.08
2018-10-18T14:26:48.152Z,48.58
2018-10-18T14:29:20.656Z,49.73
2018-10-18T14:31:52.892Z,50.63
2018-10-18T14:34:25.071Z,49.62
2018-10-18T14:36:57.372Z,50.61
2018-10-18T14:39:29.593Z,49.78
2018-10-18T14:42:01.497Z,48.40
2018-10-18T14:44:33.746Z,48.15
2018-10-18T14:47:06.174Z,48.71
2018-10-18T14:49:38.553Z,50.11
2018-10-18T14:52:10.732Z,50.17
2018-10-18T14:54:43.012Z,51.67
2018-10-18T14:57:16.270Z,49.97
2018-10-18T14:59:48.684Z,51.40
2018-10-18T15:02:20.925Z,51.75
2018-10-18T15:04:53.804Z,52.18
2018-10-18T15:07:26.140Z,51.89
2018-10-18T15:09:58.210Z,49.98
2018-10-18T15:12:30.437Z,50.26
2018-10-18T15:15:02.592Z,49.47
2018-10-18T15:17:34.703Z,48.18
2018-10-18T15:20:07.763Z,49.95
2018-10-18T15:22:40.642Z,49.44
2018-10-18T15:25:13.714Z,49.52
2018-10-18T15:27:46.180Z,49.03
2018-10-18T15:30:18.367Z,48.93
2018-10-18T15:32:51.178Z,49.82
2018-10-18T15:35:23.663Z,49.81
2018-10-18T15:37:56.889Z,51.37
2018-10-18T15:40:29.223Z,50.49
2018-10-18T15:43:01.597Z,51.63
2018-10-18T15:45:34.114Z,51.96
2018-10-18T15:48:06.278Z,52.86
2018-10-18T15:50:38.458Z,53.65
2018-10-18T15:53:10.569Z,52.92
2018-10-18T15:55:42.841Z,52.23
2018-10-18T15:58:15.317Z,51.96
2018-10-18T16:00:47.917Z,50.96
2018-10-18T16:03:20.016Z,51.08
2018-10-18T16:05:52.272Z,52.15
2018-10-18T16:08:24.419Z,51.12
2018-10-18T16:10:56.818Z,52.92
2018-10-18T16:13:29.018Z,52.84
2018-10-18T16:16:01.232Z,52.54
2018-10-18T16:18:33.480Z,52.93
2018-10-18T16:21:05.988Z,52.48
2018-10-18T16:23:38.164Z,52.13
2018-10-18T16:26:10.530Z,52.29
2018-10-18T16:28:43.142Z,53.64
2018-10-18T16:31:15.658Z,53.29
2018-10-18T16:33:47.813Z,51.89
2018-10-18T16:36:20.656Z,52.08
2018-10-18T16:38:53.353Z,53.32
2018-10-18T16:41:26.237Z,53.73
2018-10-18T16:43:58.393Z,54.22
2018-10-18T16:46:30.804Z,53.02
2018-10-18T16:49:03.269Z,52.17
2018-10-18T16:51:35.543Z,53.24
2018-10-18T16:54:08.444Z,54.88
2018-10-18T16:56:40.739Z,54.59
2018-10-18T16:59:13.324Z,55.12
2018-10-18T17:01:45.639Z,55.78
2018-10-18T17:04:17.667Z,55.98
2018-10-18T17:06:49.756Z,55.39
2018-10-18T17:09:22.238Z,55.87
2018-10-18T17:11:54.483Z,54.57
2018-10-18T17:14:26.927Z,54.74
2018-10-18T17:16:59.278Z,55.08
2018-10-18T17:19:31.545Z,56.58
2018-10-18T17:22:03.685Z,54.92
2018-10-18T17:24:36.153Z,55.64
2018-10-18T17:27:08.437Z,56.39
2018-10-18T17:29:41.176Z,56.64
2018-10-18T17:32:13.450Z,56.61
2018-10-18T17:34:45.754Z,57.19
2018-10-18T17:37:17.944Z,55.54
2018-10-18T17:39:50.699Z,55.80
2018-10-18T17:42:22.842Z,51.66
2018-10-18T17:44:54.966Z,51.49
2018-10-18T17:47:27.124Z,49.59
2018-10-18T17:49:59.237Z,48.75
2018-10-18T17:52:31.611Z,49.25
2018-10-18T17:55:03.767Z,48.60
2018-10-18T17:57:36.372Z,48.53
2018-10-18T18:00:11.977Z,46.73
2018-10-18T18:02:44.431Z,46.16
2018-10-18T18:05:16.522Z,44.69
2018-10-18T18:07:48.740Z,44.83
2018-10-18T18:10:20.872Z,45.71
2018-10-18T18:12:53.423Z,45.32
2018-10-18T18:15:25.547Z,45.35
2018-10-18T18:17:58.452Z,44.66
2018-10-18T18:20:31.485Z,43.62
2018-10-18T18:23:03.810Z,43.64
2018-10-18T18:25:35.790Z,42.88
2018-10-18T18:28:07.878Z,42.82
2018-10-18T18:30:40.358Z,42.38
2018-10-18T18:33:12.652Z,42.26
2018-10-18T18:35:44.714Z,42.32
2018-10-18T18:38:17.139Z,42.16
2018-10-18T18:40:49.372Z,43.14
2018-10-18T18:43:21.460Z,42.76
2018-10-18T18:45:53.568Z,43.06
2018-10-18T18:48:25.455Z,43.24
2018-10-18T18:50:57.602Z,42.93
2018-10-18T18:53:29.940Z,43.23
2018-10-18T18:56:02.082Z,43.62
2018-10-18T18:58:34.357Z,43.24
2018-10-18T19:01:07.038Z,43.75
2018-10-18T19:03:39.405Z,44.63
2018-10-18T19:06:11.757Z,44.25
2018-10-18T19:08:44.029Z,44.84
2018-10-18T19:11:16.185Z,44.73
2018-10-18T19:13:48.287Z,44.89
2018-10-18T19:16:20.678Z,45.35
2018-10-18T19:18:52.718Z,46.37
2018-10-18T19:21:25.268Z,45.96
2018-10-18T19:23:57.620Z,46.35
2018-10-18T19:26:29.733Z,47.06
2018-10-18T19:29:02.071Z,47.49
2018-10-18T19:31:34.741Z,48.27
2018-10-18T19:34:07.165Z,47.68
2018-10-18T19:36:39.233Z,48.26
2018-10-18T19:39:11.515Z,47.99
2018-10-18T19:41:43.388Z,49.02
2018-10-18T19:44:15.692Z,49.39
2018-10-18T19:46:47.893Z,48.97
2018-10-18T19:49:20.214Z,49.28
2018-10-18T19:51:52.284Z,49.98
2018-10-18T19:54:24.358Z,50.07
2018-10-18T19:56:57.720Z,49.70
2018-10-18T19:59:29.595Z,50.36
2018-10-18T20:02:02.478Z,50.48
2018-10-18T20:04:34.850Z,50.17
2018-10-18T20:07:06.992Z,50.74
2018-10-18T20:09:39.117Z,50.95
2018-10-18T20:12:11.159Z,50.67
2018-10-18T20:14:43.387Z,50.98
2018-10-18T20:17:15.421Z,51.76
2018-10-18T20:19:47.395Z,51.15
2018-10-18T20:22:19.378Z,51.71
2018-10-18T20:24:51.638Z,50.57
2018-10-18T20:27:23.741Z,50.36
2018-10-18T20:29:55.853Z,49.90
2018-10-18T20:32:28.335Z,49.74
2018-10-18T20:35:00.444Z,48.66
2018-10-18T20:37:32.416Z,47.57
2018-10-18T20:40:04.703Z,47.43
2018-10-18T20:42:36.560Z,46.48
2018-10-18T20:45:09.391Z,46.96
2018-10-18T20:47:41.444Z,46.73
2018-10-18T20:50:14.118Z,45.96
2018-10-18T20:52:46.194Z,46.56
2018-10-18T20:55:18.020Z,46.34
2018-10-18T20:57:50.317Z,46.02
2018-10-18T21:00:22.379Z,46.62
2018-10-18T21:02:55.077Z,46.65
2018-10-18T21:05:27.757Z,46.47
2018-10-18T21:07:59.697Z,46.18
2018-10-18T21:10:31.903Z,46.62
2018-10-18T21:13:03.985Z,46.72
2018-10-18T21:15:36.064Z,46.45
2018-10-18T21:18:08.014Z,46.71
2018-10-18T21:20:40.140Z,47.48
2018-10-18T21:23:12.210Z,47.51
2018-10-18T21:25:44.450Z,47.06
2018-10-18T21:28:16.305Z,46.25
2018-10-18T21:30:48.396Z,46.61
2018-10-18T21:33:20.678Z,47.54
2018-10-18T21:35:52.855Z,47.27
2018-10-18T21:38:24.585Z,47.56
2018-10-18T21:40:56.652Z,47.29
2018-10-18T21:43:28.667Z,47.24
2018-10-18T21:46:00.810Z,47.28
2018-10-18T21:48:36.437Z,47.28
2018-10-18T21:51:08.399Z,47.54
2018-10-18T21:53:40.588Z,47.42
2018-10-18T21:56:12.721Z,46.92
2018-10-18T21:58:44.790Z,47.43
2018-10-18T22:01:16.925Z,46.82
2018-10-18T22:03:49.732Z,47.33
2018-10-18T22:06:21.869Z,46.62
2018-10-18T22:08:53.694Z,47.28
2018-10-18T22:11:25.825Z,47.50
2018-10-18T22:13:57.819Z,47.20
2018-10-18T22:16:29.871Z,46.43
2018-10-18T22:19:02.041Z,46.10
2018-10-18T22:21:34.136Z,46.14
2018-10-18T22:24:06.021Z,46.21
2018-10-18T22:26:38.114Z,46.16
2018-10-18T22:29:10.332Z,46.39
2018-10-18T22:31:42.424Z,47.74
2018-10-18T22:34:14.991Z,47.48
2018-10-18T22:36:47.208Z,47.80
2018-10-18T22:39:19.289Z,47.68
2018-10-18T22:41:51.521Z,48.61
2018-10-18T22:44:23.586Z,48.40
2018-10-18T22:46:55.626Z,49.60
2018-10-18T22:49:27.733Z,49.03
2018-10-18T22:51:59.810Z,49.49
2018-10-18T22:54:31.790Z,49.78
2018-10-18T22:57:03.948Z,50.14
2018-10-18T22:59:35.924Z,51.48
2018-10-18T23:02:07.945Z,50.87
2018-10-18T23:04:40.466Z,50.81
2018-10-18T23:07:12.470Z,51.21
2018-10-18T23:09:44.428Z,51.02
2018-10-18T23:12:16.339Z,50.76
2018-10-18T23:14:48.446Z,51.76
2018-10-18T23:17:20.426Z,51.57
2018-10-18T23:19:52.522Z,51.88
2018-10-18T23:22:24.494Z,52.53
2018-10-18T23:24:56.502Z,52.41
2018-10-18T23:27:32.234Z,52.71
2018-10-18T23:30:04.311Z,54.25
2018-10-18T23:32:36.695Z,54.36
2018-10-18T23:35:09.244Z,53.00
2018-10-18T23:37:41.956Z,54.12
2018-10-18T23:40:13.736Z,53.61
2018-10-18T23:42:45.799Z,53.82
2018-10-18T23:45:21.175Z,53.72
2018-10-18T23:47:54.025Z,53.72
2018-10-18T23:50:26.059Z,53.90
2018-10-18T23:52:58.127Z,52.97
2018-10-18T23:55:30.171Z,53.57
2018-10-18T23:58:02.689Z,54.42
